Tropical Cyclones
[Index]
Main Index Home Page Stock Weather Photos Extreme Storms Discussion Storm News and Storm Chasing Reports Tropical Cyclones / Hurricanes / Typhoons Weather Data and Links Wild Fires / Bushfires Weather Observation Techniques Weather Picture Catalogue Tornado Pictures and Reports Stock Video Footage and DVDs for sale
Season 2009-2010 Tropical Cyclone ANJA Track Map
Season 2009-2010 Summaries: [BoM-AU] [JTWC-AU] [JTWC-SIO] [JTWC-SPAC] [JTWC-SH]
<<- Previous TC | JTWC 2009-2010 Season | Next TC ->>

click for intensity scale information  Lat/long Grid: Show Hide

 Date Labels: Show Hide

Joint Typhoon Warning Centre Cyclone Data

Name: ANJA

13 Nov 2009 12:00 UTC to 18 Nov 2009 18:00 UTC

    date/time    lat    long     hPa   cat  kts
2009-11-13 12   10.3    71.4    1004         25          
2009-11-13 18   11.1    71.4    1000         30          
2009-11-14 00   11.9    71.2    1000         30          
2009-11-14 06   12.6    70.9     993    1    40          
2009-11-14 12   12.8    70.7     985    1    50          
2009-11-14 18   12.9    70.6     978    2    60          
2009-11-14 18   12.9    70.6     978    2    60          
2009-11-15 00   13.0    70.5     956    3    90          
2009-11-15 00   13.0    70.5     956    3    90          
2009-11-15 00   13.0    70.5     956    3    90          
2009-11-15 06   13.1    70.3     948    4   100          
2009-11-15 06   13.1    70.3     948    4   100          
2009-11-15 06   13.1    70.3     948    4   100          
2009-11-15 12   13.3    69.9     944    4   105          
2009-11-15 12   13.3    69.9     944    4   105          
2009-11-15 12   13.3    69.9     944    4   105          
2009-11-15 18   13.3    69.5     944    4   105          
2009-11-15 18   13.3    69.5     944    4   105          
2009-11-15 18   13.3    69.5     944    4   105          
2009-11-16 00   13.6    69.2     944    4   105          
2009-11-16 00   13.6    69.2     944    4   105          
2009-11-16 00   13.6    69.2     944    4   105          
2009-11-16 06   14.0    68.8     944    4   105          
2009-11-16 06   14.0    68.8     944    4   105          
2009-11-16 06   14.0    68.8     944    4   105          
2009-11-16 12   14.8    68.3     944    4   105          
2009-11-16 12   14.8    68.3     944    4   105          
2009-11-16 12   14.8    68.3     944    4   105          
2009-11-16 18   15.6    67.7     944    4   105          
2009-11-16 18   15.6    67.7     944    4   105          
2009-11-16 18   15.6    67.7     944    4   105          
2009-11-17 00   16.4    67.3     944    4   105          
2009-11-17 00   16.4    67.3     944    4   105          
2009-11-17 00   16.4    67.3     944    4   105          
2009-11-17 06   17.3    67.0     956    3    90          
2009-11-17 06   17.3    67.0     956    3    90          
2009-11-17 06   17.3    67.0     956    3    90          
2009-11-17 12   18.5    66.7     966    3    75          
2009-11-17 12   18.5    66.7     966    3    75          
2009-11-17 12   18.5    66.7     966    3    75          
2009-11-17 18   19.7    66.9     974    2    65          
2009-11-17 18   19.7    66.9     974    2    65          
2009-11-18 00   20.8    66.4     982    2    55          
2009-11-18 00   20.8    66.4     982    2    55          
2009-11-18 06   21.7    66.4     993    1    40          
2009-11-18 12   22.9    67.1    1000         30          
2009-11-18 18   24.1    68.2    1007         20          
Winds are 1-min average.

Tropical cyclone tracks developed by Michael Bath using data from the Joint Typhoon Warning Centre Best Tracks and Google Maps.


[Australian Severe Weather index] [Copyright Notice] [Email Contacts] [Search This Site] [Privacy Policy]
Document: tropical_cyclone_anja.htm Updated: 28 June 2017